Cholsey, United Kingdom
Current Conditions -  °F | °C
As of 6:50 PM on Wednesday 17 Dec 2014 (Local Time) from EGUB Reporting Station
Broken Clouds Broken Clouds  
Wind Chill: 52°   Ceiling: 6000
Heat Index: 52°   Visibility: 6mi
Dew Point: 50°   Wind: 9mph
Humidity: 94%   Direction: 230°SW
Pressure: 29.77"   Gusts: NA
Location:  51.57°N, 1.15°W
Report Text: EGUB 171850Z 23008KT 9999 SCT010 BKN060 11/10 Q1008 GRN TEMPO 6000 -RADZ GRN
Loading
Personal Weather Stations






























Interactive Weather Map New forecast layout! Learn more

10-Day Weather Forecast

Advertisements
Track Severe Weather on mobile